M I D A S
Marine Information and Data Acquisition System
Tripno 1247 of the Zeeleeuw from 2007-04-18 07:13:33 to 2007-04-18 10:57:47
Back to CruiseResearch ActivitiesStationsMapUnderway DataData graphs

EquipmentUnitsComment
TimeDGPSUTC
LatitudeDGPSDM.mWGS84
LongitudeDGPSDM.mWGS84
HeadingGyrodeg 
SOGDGPSknotsSpeed over ground
COGDGPSdegCourse over ground
DepthEcho soundermeters200 kHz
Missing or incorrect values are displayed as -999
Navigation data collected by the RV Zeeleeuw from 2007-04-18 07:13:55 to 2007-04-18 12:46:31
Time Latitude Longitude Heading SOG COG Depth
2007-04-18 07:15:00 51°13.603 2°56.064 117.3 3.5 296 -999
2007-04-18 07:16:01 51°13.63 2°55.975 119.8 3.8 297 -999
2007-04-18 07:17:01 51°13.659 2°55.885 115.8 3.5 295 8.2
2007-04-18 07:18:01 51°13.676 2°55.809 100.4 2.1 284 8.6
2007-04-18 07:19:01 51°13.68 2°55.774 82.4 1 279 9
2007-04-18 07:20:01 51°13.681 2°55.757 65.6 0.3 299 9.1
2007-04-18 07:21:01 51°13.692 2°55.759 29.1 1.1 3 10.6
2007-04-18 07:22:01 51°13.715 2°55.751 346.4 2 336 11.1
2007-04-18 07:23:01 51°13.764 2°55.698 330.2 4.7 326 9.1
2007-04-18 07:24:01 51°13.846 2°55.625 336 6.1 332 8.9
2007-04-18 07:25:01 51°13.942 2°55.546 337 6.8 335 -999
2007-04-18 07:26:01 51°14.048 2°55.482 346.6 6.9 345 6.8
2007-04-18 07:27:01 51°14.154 2°55.423 339.2 6.5 335 5.5
2007-04-18 07:28:01 51°14.243 2°55.33 325.8 6.3 319 9.6
2007-04-18 07:29:01 51°14.319 2°55.176 308.4 9.2 305 9.1
2007-04-18 07:30:01 51°14.403 2°54.934 301.3 11 292 8.9
2007-04-18 07:31:01 51°14.425 2°54.633 275.1 11.8 269 9.6
2007-04-18 07:32:01 51°14.378 2°54.31 253.6 13.1 245 7.3
2007-04-18 07:33:01 51°14.263 2°54.008 240.9 13.6 239 7
2007-04-18 07:34:01 51°14.201 2°53.663 266.4 13.7 260 7.4
2007-04-18 07:35:01 51°14.113 2°53.32 246 14.4 242 7.7
2007-04-18 07:36:01 51°14.016 2°52.972 249.9 14.4 244 8.2
2007-04-18 07:37:01 51°13.9 2°52.636 248.2 14.4 245 8.4
2007-04-18 07:38:01 51°13.779 2°52.305 242.1 14.5 239 8.5
2007-04-18 07:39:01 51°13.654 2°51.975 239.6 14.5 237 8.6
2007-04-18 07:40:00 51°13.527 2°51.653 241.3 14.7 238 8.8
2007-04-18 07:41:01 51°13.397 2°51.317 242 14.6 238 8.9
2007-04-18 07:42:01 51°13.269 2°50.987 241.2 14.7 238 9
2007-04-18 07:43:01 51°13.139 2°50.655 240.8 14.8 238 9.2
2007-04-18 07:44:01 51°13.008 2°50.319 241.2 14.9 238 9.3
2007-04-18 07:45:01 51°12.875 2°49.984 241 15 238 9.4
2007-04-18 07:46:01 51°12.743 2°49.648 241.2 15 239 9.4
2007-04-18 07:47:01 51°12.627 2°49.299 244.5 14.8 240 9.7
2007-04-18 07:48:01 51°12.501 2°48.961 242.7 14.8 239 9.6
2007-04-18 07:49:01 51°12.378 2°48.622 242.9 14.7 240 9.7
2007-04-18 07:50:01 51°12.257 2°48.284 243 14.7 241 9.7
2007-04-18 07:51:01 51°12.16 2°47.928 259 14.7 255 10
2007-04-18 07:52:01 51°12.102 2°47.598 254.7 9.8 245 10.7
2007-04-18 07:53:01 51°12.039 2°47.469 218.9 3.4 226 10.8
2007-04-18 07:54:01 51°12.001 2°47.417 200.1 2.8 217 10.4
2007-04-18 07:55:01 51°11.964 2°47.375 193.9 3 212 10.3
2007-04-18 07:56:01 51°11.898 2°47.319 202.5 5.7 210 9.9
2007-04-18 07:57:01 51°11.823 2°47.217 233.2 5.6 234 9.3
2007-04-18 07:58:01 51°11.778 2°47.107 242.8 4.5 240 9.3
2007-04-18 07:59:01 51°11.746 2°47.014 247.5 3.6 242 9.3
2007-04-18 08:00:01 51°11.721 2°46.937 246.7 3 241 9.3
2007-04-18 08:01:01 51°11.695 2°46.872 239 2.8 236 9.2
2007-04-18 08:02:01 51°11.669 2°46.808 238 3 237 9.1
2007-04-18 08:03:01 51°11.642 2°46.738 244.1 3.2 240 9
2007-04-18 08:04:01 51°11.615 2°46.665 245.6 3.2 240 9
2007-04-18 08:05:01 51°11.59 2°46.591 247.6 3.2 242 9
2007-04-18 08:06:01 51°11.564 2°46.516 249.2 3.2 242 8.9
2007-04-18 08:07:01 51°11.538 2°46.441 251.1 3.2 243 9
2007-04-18 08:08:01 51°11.514 2°46.364 253.2 3.2 244 9
2007-04-18 08:09:01 51°11.49 2°46.288 254.9 3.2 245 9
2007-04-18 08:10:01 51°11.467 2°46.21 256.6 3.2 245 9
2007-04-18 08:11:01 51°11.445 2°46.131 259.2 3.3 247 9.1
2007-04-18 08:12:01 51°11.427 2°46.05 272 3.2 252 9.1
2007-04-18 08:13:01 51°11.416 2°45.971 292.7 3 263 9.3
2007-04-18 08:14:01 51°11.415 2°45.897 314.2 2.6 274 9.4
2007-04-18 08:15:01 51°11.429 2°45.824 326.8 3.2 294 9.8
2007-04-18 08:16:01 51°11.448 2°45.734 305.3 3.7 280 10.2
2007-04-18 08:17:01 51°11.452 2°45.638 295.7 3.6 272 10.5
2007-04-18 08:18:01 51°11.454 2°45.546 294.4 3.4 272 10.7
2007-04-18 08:19:01 51°11.457 2°45.46 298.8 3.1 276 10.9
2007-04-18 08:20:01 51°11.466 2°45.381 306.3 3 281 11
2007-04-18 08:21:01 51°11.474 2°45.304 303.4 3 278 11.2
2007-04-18 08:22:01 51°11.482 2°45.228 306.3 2.9 279 11.4
2007-04-18 08:23:01 51°11.49 2°45.155 309.7 2.7 281 11.6
2007-04-18 08:24:01 51°11.504 2°45.096 344.4 2.1 302 11.6
2007-04-18 08:25:01 51°11.517 2°45.06 1.8 1.4 294 11.7
2007-04-18 08:26:01 51°11.524 2°45.026 353.4 1.4 279 11.7
2007-04-18 08:27:01 51°11.526 2°44.991 342.9 1.3 269 11.7
2007-04-18 08:28:01 51°11.547 2°44.959 14.5 2.7 -999 11.8
2007-04-18 08:29:01 51°11.555 2°45.04 107.5 5.2 114 11.8
2007-04-18 08:30:01 51°11.529 2°45.244 92.7 9.5 94 11.5
2007-04-18 08:31:01 51°11.538 2°45.416 70.6 3.5 62 11.6
2007-04-18 08:32:01 51°11.56 2°45.429 25.1 1.2 323 11.7
2007-04-18 08:33:01 51°11.573 2°45.401 5.7 1.4 296 11.8
2007-04-18 08:34:01 51°11.58 2°45.364 352 1.5 282 11.8
2007-04-18 08:35:01 51°11.583 2°45.324 341.4 1.5 272 11.9
2007-04-18 08:36:01 51°11.583 2°45.284 334.5 1.4 271 11.8
2007-04-18 08:37:01 51°11.582 2°45.247 332.5 1.3 266 11.9
2007-04-18 08:38:01 51°11.579 2°45.211 333.2 1.3 261 11.9
2007-04-18 08:39:01 51°11.576 2°45.178 337.7 1.2 258 12
2007-04-18 08:40:01 51°11.571 2°45.147 345.4 1.2 252 11.9
2007-04-18 08:41:01 51°11.568 2°45.116 349.9 1.4 287 11.9
2007-04-18 08:42:01 51°11.586 2°45.03 296.6 5.6 277 11.9
2007-04-18 08:43:01 51°11.598 2°44.771 283.1 13.5 276 11.8
2007-04-18 08:44:01 51°11.622 2°44.39 279.4 14.5 274 11.5
2007-04-18 08:45:01 51°11.634 2°44.014 278.5 14.1 271 10.8
2007-04-18 08:46:01 51°11.619 2°43.644 269.8 14 264 10.3
2007-04-18 08:47:01 51°11.593 2°43.298 267.7 10.6 261 9.8
2007-04-18 08:48:01 51°11.567 2°43.06 269.5 8.9 263 10
2007-04-18 08:49:01 51°11.55 2°42.825 269.4 8.9 263 9.9
2007-04-18 08:50:01 51°11.53 2°42.623 265.4 6 256 10.3
2007-04-18 08:51:01 51°11.503 2°42.517 253.5 3.1 241 10.3
2007-04-18 08:52:01 51°11.49 2°42.427 283 4 273 10.5
2007-04-18 08:53:01 51°11.51 2°42.329 313.5 4.2 296 10.2
2007-04-18 08:54:01 51°11.534 2°42.225 303.9 3.9 287 9.8
2007-04-18 08:55:01 51°11.55 2°42.136 304.8 3.3 283 9.7
2007-04-18 08:56:01 51°11.555 2°42.055 291.8 3 269 9.8
2007-04-18 08:57:01 51°11.544 2°41.969 266.9 3.6 252 9.9
2007-04-18 08:58:01 51°11.523 2°41.88 262.4 3.4 247 10
2007-04-18 08:59:01 51°11.5 2°41.801 260.2 3.2 244 10.3
2007-04-18 09:00:01 51°11.477 2°41.728 257.4 3.1 241 10.5
2007-04-18 09:01:01 51°11.451 2°41.658 253.6 3 238 10.8
2007-04-18 09:02:01 51°11.424 2°41.588 250 3.2 237 11
2007-04-18 09:03:01 51°11.392 2°41.515 246.7 3.4 234 11.5
2007-04-18 09:04:01 51°11.357 2°41.444 237.9 3.5 229 11.5
2007-04-18 09:05:01 51°11.318 2°41.377 230.5 3.4 224 11.5
2007-04-18 09:06:01 51°11.276 2°41.316 226.6 3.4 224 11.5
2007-04-18 09:07:01 51°11.234 2°41.256 226.8 3.4 223 11.6
2007-04-18 09:08:01 51°11.192 2°41.197 225.9 3.4 222 11.7
2007-04-18 09:09:01 51°11.151 2°41.138 224.7 3.3 221 11.8
2007-04-18 09:10:01 51°11.109 2°41.082 223.5 3.3 219 12.1
2007-04-18 09:11:01 51°11.067 2°41.027 223 3.3 220 12.1
2007-04-18 09:12:01 51°11.026 2°40.97 222.9 3.3 220 12.2
2007-04-18 09:13:01 51°10.984 2°40.916 221.7 3.2 220 12.3
2007-04-18 09:14:01 51°10.942 2°40.863 215.7 3.2 215 12.4
2007-04-18 09:15:01 51°10.896 2°40.824 199.4 3.1 205 12.4
2007-04-18 09:16:01 51°10.849 2°40.786 203.2 3.2 209 12.4
2007-04-18 09:17:01 51°10.802 2°40.743 208.1 3.2 212 12.4
2007-04-18 09:18:01 51°10.762 2°40.691 218.1 3.1 223 12.5
2007-04-18 09:19:01 51°10.728 2°40.631 234 2.9 235 12.5
2007-04-18 09:20:01 51°10.708 2°40.562 267.8 2.7 255 12.6
2007-04-18 09:21:01 51°10.7 2°40.501 279.1 2.1 257 12.8
2007-04-18 09:22:01 51°10.691 2°40.452 274.8 1.8 250 13
2007-04-18 09:23:01 51°10.679 2°40.41 263.4 1.9 248 13
2007-04-18 09:24:01 51°10.678 2°40.337 304.2 3.2 290 13.1
2007-04-18 09:25:01 51°10.716 2°40.298 13.5 2.6 4 13.2
2007-04-18 09:26:01 51°10.786 2°40.365 42.7 8.2 40 13.1
2007-04-18 09:27:01 51°10.918 2°40.572 48.4 12.1 45 12.7
2007-04-18 09:28:01 51°11.062 2°40.798 47.6 12.2 44 12.3
2007-04-18 09:29:01 51°11.205 2°41.027 48.6 12.2 52 12.2
2007-04-18 09:30:01 51°11.286 2°41.244 67.6 6.4 70 12
2007-04-18 09:31:01 51°11.292 2°41.343 80.5 1.8 90 11.8
2007-04-18 09:32:01 51°11.295 2°41.361 45 0.4 65 11.8
2007-04-18 09:33:01 51°11.296 2°41.366 37.7 -999 83 11.8
2007-04-18 09:34:01 51°11.294 2°41.364 32.3 0.2 206 11.8
2007-04-18 09:35:01 51°11.29 2°41.359 26.8 0.4 222 11.9
2007-04-18 09:36:01 51°11.283 2°41.352 23.9 0.5 210 11.8
2007-04-18 09:37:01 51°11.275 2°41.344 20 0.6 212 11.9
2007-04-18 09:38:01 51°11.267 2°41.335 15.8 0.6 213 12
2007-04-18 09:39:01 51°11.265 2°41.328 12.3 1.1 353 11.9
2007-04-18 09:40:01 51°11.291 2°41.323 8.2 1.6 350 12
2007-04-18 09:41:01 51°11.316 2°41.314 6.8 1.4 345 12.1
2007-04-18 09:42:01 51°11.335 2°41.304 5.5 1 336 12.1
2007-04-18 09:43:01 51°11.346 2°41.292 3 0.7 317 12.2
2007-04-18 09:44:01 51°11.352 2°41.28 0.1 0.5 290 12.2
2007-04-18 09:45:01 51°11.352 2°41.268 357.4 0.4 264 12.3
2007-04-18 09:46:01 51°11.355 2°41.258 3.9 0.9 349 12.4
2007-04-18 09:47:01 51°11.377 2°41.302 71.1 4.4 88 12.3
2007-04-18 09:48:01 51°11.358 2°41.497 92 9.7 91 11.9
2007-04-18 09:49:01 51°11.363 2°41.789 89.4 11.5 89 11.3
2007-04-18 09:50:01 51°11.367 2°42.097 90 11.7 89 11.4
2007-04-18 09:51:01 51°11.37 2°42.408 90 11.7 89 11.4
2007-04-18 09:52:01 51°11.402 2°42.725 81.9 12.7 81 11.2
2007-04-18 09:53:01 51°11.44 2°43.06 81.8 12.9 80 11.4
2007-04-18 09:54:01 51°11.476 2°43.398 82.5 13 80 11.8
2007-04-18 09:55:01 51°11.513 2°43.737 82.4 13 81 12.1
2007-04-18 09:56:01 51°11.548 2°44.076 83.2 13 80 12.3
2007-04-18 09:57:01 51°11.584 2°44.414 82.8 12.9 80 12.6
2007-04-18 09:58:01 51°11.619 2°44.752 84 13 81 12.7
2007-04-18 09:59:01 51°11.654 2°45.09 83.4 12.9 81 12.8
2007-04-18 10:00:01 51°11.688 2°45.428 83.1 12.9 82 12.9
2007-04-18 10:01:01 51°11.727 2°45.763 78.9 12.8 75 12.9
2007-04-18 10:02:01 51°11.786 2°46.086 76.1 12.6 74 12.8
2007-04-18 10:03:01 51°11.844 2°46.404 77.3 12.5 73 12.9
2007-04-18 10:04:01 51°11.903 2°46.722 76.2 12.6 74 12.7
2007-04-18 10:05:01 51°11.998 2°47.018 61.8 12.7 58 12.6
2007-04-18 10:06:01 51°12.108 2°47.306 62.4 12.7 58 12.7
2007-04-18 10:07:01 51°12.215 2°47.6 64 12.8 60 12.7
2007-04-18 10:08:01 51°12.319 2°47.896 64.7 12.8 61 12.6
2007-04-18 10:09:01 51°12.422 2°48.194 65.5 12.8 62 12.4
2007-04-18 10:10:01 51°12.524 2°48.493 65.7 12.9 61 12.3
2007-04-18 10:11:01 51°12.626 2°48.794 64.8 13 63 12.2
2007-04-18 10:12:01 51°12.728 2°49.097 65.3 12.9 62 12.1
2007-04-18 10:13:01 51°12.83 2°49.4 65.5 13 61 11.9
2007-04-18 10:14:01 51°12.931 2°49.703 65 12.9 62 11.7
2007-04-18 10:15:01 51°13.032 2°50.006 65.3 13 62 11.6
2007-04-18 10:16:01 51°13.134 2°50.31 65.6 13 62 11.5
2007-04-18 10:17:01 51°13.235 2°50.613 65.8 12.9 62 11.3
2007-04-18 10:18:01 51°13.335 2°50.916 65 12.9 62 11.2
2007-04-18 10:19:01 51°13.436 2°51.219 65.3 12.9 63 11.2
2007-04-18 10:20:01 51°13.535 2°51.521 65 12.9 62 11.1
2007-04-18 10:21:01 51°13.634 2°51.825 65.3 12.9 63 11
2007-04-18 10:22:01 51°13.734 2°52.128 65.4 13 62 10.9
2007-04-18 10:23:01 51°13.833 2°52.431 65.1 12.8 63 10.8
2007-04-18 10:24:02 51°13.92 2°52.705 66.8 8.3 65 10.8
2007-04-18 10:25:01 51°13.938 2°52.835 90.8 2.3 101 10.9
2007-04-18 10:26:02 51°13.93 2°52.846 121.3 0.5 156 10.9
2007-04-18 10:27:01 51°13.922 2°52.85 132.7 0.6 169 10.9
2007-04-18 10:28:01 51°13.911 2°52.856 143.9 0.7 161 10.9
2007-04-18 10:29:01 51°13.9 2°52.862 152.4 0.8 161 10.9
2007-04-18 10:30:01 51°13.887 2°52.867 162.1 0.8 169 10.9
2007-04-18 10:31:01 51°13.876 2°52.87 172.5 0.7 173 10.8
2007-04-18 10:32:01 51°13.866 2°52.871 181.8 0.6 174 10.8
2007-04-18 10:33:01 51°13.856 2°52.873 188.4 0.6 167 10.8
2007-04-18 10:34:01 51°13.847 2°52.874 193.5 0.5 173 10.8
2007-04-18 10:35:01 51°13.835 2°52.876 195.6 1.3 184 10.8
2007-04-18 10:36:01 51°13.783 2°52.875 177.7 4.3 171 10.7
2007-04-18 10:37:01 51°13.725 2°52.943 123.3 4.1 118 10.4
2007-04-18 10:38:01 51°13.71 2°53.039 96 3.6 94 10.3
2007-04-18 10:39:01 51°13.713 2°53.137 87.8 3.8 86 10.2
2007-04-18 10:40:01 51°13.717 2°53.237 88.8 3.8 85 10
2007-04-18 10:41:01 51°13.734 2°53.328 66.4 3.5 62 9.9
2007-04-18 10:42:02 51°13.767 2°53.405 52.9 3.5 52 9.9
2007-04-18 10:43:01 51°13.801 2°53.481 54.9 3.7 55 9.9
2007-04-18 10:44:02 51°13.837 2°53.562 55.7 3.7 55 9.8
2007-04-18 10:45:01 51°13.875 2°53.64 49.3 3.8 50 9.8
2007-04-18 10:46:01 51°13.914 2°53.718 54.4 3.8 53 9.7
2007-04-18 10:47:02 51°13.954 2°53.799 48.9 3.9 49 9.9
2007-04-18 10:48:01 51°14 2°53.868 41.3 3.8 42 9.9
2007-04-18 10:49:01 51°14.047 2°53.936 38.9 3.8 41 9.9
2007-04-18 10:50:01 51°14.097 2°53.999 34.8 3.9 37 10.1
2007-04-18 10:51:01 51°14.15 2°54.057 31 3.9 35 10.2
2007-04-18 10:52:01 51°14.204 2°54.11 26.1 3.8 29 10.2
2007-04-18 10:53:01 51°14.284 2°54.179 28 9 30 10.3
2007-04-18 10:54:01 51°14.402 2°54.388 58.7 9.8 59 10.7
2007-04-18 10:55:01 51°14.465 2°54.592 74.3 8.4 74 12
2007-04-18 10:56:01 51°14.453 2°54.817 113.9 8.9 110 12.8
2007-04-18 10:57:01 51°14.382 2°55.027 127.5 9.2 122 12.3
2007-04-18 10:58:02 51°14.302 2°55.201 134.7 6.5 136 12.4
2007-04-18 10:59:01 51°14.239 2°55.288 146.6 4.2 142 12.9
2007-04-18 11:00:01 51°14.2 2°55.336 147.9 2.4 142 13.5
2007-04-18 11:01:01 51°14.171 2°55.373 149.9 2.2 148 4.6
2007-04-18 11:02:02 51°14.133 2°55.405 154.9 2.7 152 4.6
2007-04-18 11:03:01 51°14.091 2°55.436 160.7 3 159 4.6
2007-04-18 11:04:01 51°14.041 2°55.457 169.8 3.6 168 4.8
2007-04-18 11:05:02 51°13.996 2°55.464 194.3 0.9 158 8.8
2007-04-18 11:06:01 51°13.988 2°55.465 202.4 0.1 64 8.3
2007-04-18 11:07:02 51°13.987 2°55.464 202 0.1 299 -999
2007-04-18 11:08:01 51°13.988 2°55.463 195.9 -999 283 4.8
2007-04-18 11:09:02 51°13.988 2°55.462 189.8 -999 265 4.7
2007-04-18 11:10:01 51°13.989 2°55.46 182.9 0.1 317 7.8
2007-04-18 11:11:01 51°13.989 2°55.459 179.2 -999 330 7.8
2007-04-18 11:12:02 51°13.991 2°55.46 172.8 0.2 353 7.9
2007-04-18 11:13:01 51°13.994 2°55.46 167.4 0.2 44 8.5
2007-04-18 11:14:02 51°13.995 2°55.458 172 0.2 159 8.3
2007-04-18 11:15:01 51°13.995 2°55.459 167.3 0.1 27 8.5
2007-04-18 11:16:01 51°13.996 2°55.458 174.5 -999 298 8.5
2007-04-18 11:17:01 51°13.994 2°55.458 167.5 0.1 267 8.4
2007-04-18 11:18:02 51°13.993 2°55.458 168.3 0.1 165 8.4
2007-04-18 11:19:01 51°13.993 2°55.458 168.9 -999 71 8.4
2007-04-18 11:20:01 51°13.992 2°55.459 168.3 0.1 176 8.3
2007-04-18 11:21:02 51°13.992 2°55.459 168.6 0.1 54 8.4
2007-04-18 11:22:01 51°13.992 2°55.459 169.1 -999 337 8.4
2007-04-18 11:23:02 51°13.992 2°55.459 169.1 -999 178 8.4
2007-04-18 11:24:01 51°13.991 2°55.459 169.8 -999 318 -999
2007-04-18 11:25:02 51°13.991 2°55.459 169.8 -999 29 8.5
2007-04-18 11:26:01 51°13.991 2°55.459 170.7 -999 239 8.6
2007-04-18 11:27:02 51°13.991 2°55.458 170.9 -999 346 8.6
2007-04-18 11:28:02 51°13.991 2°55.459 170.9 -999 232 -999
2007-04-18 11:29:02 51°13.991 2°55.459 171 -999 208 -999
2007-04-18 11:30:01 51°13.991 2°55.459 171 -999 278 -999
2007-04-18 11:31:02 51°13.991 2°55.459 171 -999 65 -999
2007-04-18 11:32:02 51°13.991 2°55.459 170.9 -999 168 -999
2007-04-18 11:33:01 51°13.992 2°55.459 171 -999 213 -999
2007-04-18 11:34:01 51°13.992 2°55.459 171 -999 327 -999
2007-04-18 11:35:02 51°13.992 2°55.459 171 -999 350 -999
2007-04-18 11:36:01 51°13.991 2°55.459 171 -999 21 -999
2007-04-18 11:37:01 51°13.992 2°55.46 171 -999 24 -999
2007-04-18 11:38:02 51°13.992 2°55.459 171 -999 329 -999
2007-04-18 11:39:01 51°13.992 2°55.459 171 -999 89 -999
2007-04-18 11:40:02 51°13.991 2°55.459 171 -999 45 -999
2007-04-18 11:41:02 51°13.991 2°55.459 171 -999 185 -999
2007-04-18 11:42:01 51°13.991 2°55.459 171 -999 65 -999
2007-04-18 11:43:01 51°13.991 2°55.459 171 -999 129 9
2007-04-18 11:44:01 51°13.991 2°55.459 171 -999 58 9.1
2007-04-18 11:45:01 51°13.991 2°55.46 171 -999 33 9.1
2007-04-18 11:46:01 51°13.992 2°55.46 171 -999 173 9.1
2007-04-18 11:47:01 51°13.991 2°55.46 171 -999 211 9.1
2007-04-18 11:48:01 51°13.991 2°55.46 171 -999 137 9.1
2007-04-18 11:49:01 51°13.991 2°55.459 171 -999 191 9.1
2007-04-18 11:50:01 51°13.991 2°55.46 171 -999 167 9.2
2007-04-18 11:51:01 51°13.991 2°55.46 171 -999 133 9.1
2007-04-18 11:52:01 51°13.99 2°55.459 171.1 -999 349 9.2
2007-04-18 11:53:01 51°13.991 2°55.459 171 -999 232 9.2
2007-04-18 11:54:01 51°13.991 2°55.46 171.1 -999 265 9.2
2007-04-18 11:55:01 51°13.991 2°55.459 171.1 -999 235 9.3
2007-04-18 11:56:01 51°13.991 2°55.459 171.1 -999 317 9.2
2007-04-18 11:57:01 51°13.991 2°55.459 171.1 -999 258 9.3
2007-04-18 11:58:01 51°13.99 2°55.459 171.1 -999 357 9.3
2007-04-18 11:59:01 51°13.99 2°55.459 171.1 -999 97 9.3
2007-04-18 12:00:01 51°13.99 2°55.459 171 -999 55 9.3
2007-04-18 12:01:01 51°13.99 2°55.459 171 -999 270 9.3
2007-04-18 12:02:01 51°13.99 2°55.46 171 -999 24 9.3
2007-04-18 12:03:01 51°13.99 2°55.46 170.1 0.1 145 9.4
2007-04-18 12:04:01 51°13.991 2°55.46 170.7 -999 105 9.4
2007-04-18 12:05:01 51°13.991 2°55.46 170.8 -999 265 9.4
2007-04-18 12:06:01 51°13.991 2°55.459 170.9 -999 223 9.4
2007-04-18 12:07:01 51°13.991 2°55.459 171.1 -999 32 9.4
2007-04-18 12:08:01 51°13.991 2°55.459 171 -999 101 9.4
2007-04-18 12:09:01 51°13.991 2°55.459 171.1 -999 349 -999
2007-04-18 12:10:01 51°13.991 2°55.459 170.9 -999 333 9.4
2007-04-18 12:11:01 51°13.991 2°55.459 171 -999 220 -999
2007-04-18 12:12:01 51°13.992 2°55.459 171 -999 356 9.3
2007-04-18 12:13:01 51°13.992 2°55.458 171 -999 3 4.6
2007-04-18 12:14:01 51°13.992 2°55.458 171.1 -999 48 -999
2007-04-18 12:15:01 51°13.991 2°55.458 171.1 -999 142 9.4
2007-04-18 12:16:01 51°13.991 2°55.458 171 -999 270 -999
2007-04-18 12:17:01 51°13.991 2°55.458 171.1 -999 41 9.4
2007-04-18 12:18:01 51°13.991 2°55.459 171.2 -999 102 9.3
2007-04-18 12:19:01 51°13.991 2°55.459 171.2 -999 45 9.4
2007-04-18 12:20:01 51°13.991 2°55.458 171.1 -999 167 -999
2007-04-18 12:21:01 51°13.991 2°55.458 171.1 -999 119 9.4
2007-04-18 12:22:01 51°13.991 2°55.458 171.1 -999 8 -999
2007-04-18 12:23:01 51°13.991 2°55.459 171.1 -999 332 9.4
2007-04-18 12:24:01 51°13.991 2°55.459 171.1 -999 118 9.4
2007-04-18 12:25:01 51°13.991 2°55.459 171.1 -999 85 9.4
2007-04-18 12:26:01 51°13.991 2°55.46 171.1 -999 341 9.4
2007-04-18 12:27:01 51°13.991 2°55.46 171.1 -999 241 9.4
2007-04-18 12:28:01 51°13.991 2°55.459 171.1 0.1 86 9.4
2007-04-18 12:29:01 51°13.991 2°55.459 171.1 -999 126 -999
2007-04-18 12:30:01 51°13.991 2°55.458 171.2 -999 160 9.4
2007-04-18 12:31:01 51°13.991 2°55.458 171.2 -999 50 9.3
2007-04-18 12:32:01 51°13.991 2°55.459 169.8 0.1 349 -999
2007-04-18 12:33:01 51°13.994 2°55.459 172.2 0.6 354 -999
2007-04-18 12:34:01 51°14.011 2°55.452 168.2 1.2 339 -999
2007-04-18 12:35:01 51°14.015 2°55.452 153.2 0.6 130 -999
2007-04-18 12:36:01 51°13.988 2°55.482 152.4 3.2 149 -999
2007-04-18 12:37:01 51°13.916 2°55.549 153 6 150 -999
2007-04-18 12:38:01 51°13.825 2°55.633 150.5 6 147 -999
2007-04-18 12:39:01 51°13.753 2°55.722 139.7 5.3 137 -999
2007-04-18 12:40:01 51°13.694 2°55.817 133 4.7 132 -999
2007-04-18 12:41:01 51°13.651 2°55.907 127.7 3.9 126 -999
2007-04-18 12:42:01 51°13.62 2°55.985 123.3 3.1 120 -999
2007-04-18 12:43:01 51°13.599 2°56.051 112.2 2.4 112 -999
2007-04-18 12:44:01 51°13.591 2°56.099 110.4 1.3 105 -999
2007-04-18 12:45:01 51°13.587 2°56.115 118.6 0.3 119 -999
2007-04-18 12:46:01 51°13.584 2°56.123 119.8 0.4 122 -999